• Join FlightAware (Why Join?)
  • Login
  • US Flag 
08:05AM EDT


 

Airport Tracker/Info


-or-


 

Live Flight TrackerFlight Track Log ✈ LOF3416 ✈ 05-Nov-2013 ✈ KSGF - KORD

Flight Track Log - Related Links

Times and Time Zones

All times are in EST time to prevent confusion due to time zone crossing. See the LOF3416 flight status page for this flight to view local times or setup timezone preferences in your user account.

Time Position Orientation Groundspeed Altitude Reporting Facility
EST Latitude Longitude Course Direction KTS MPH feet Rate Location/Type
08:46PM 37.3719 -93.1825 28° Northeast 288 331 10,400  Level Kansas City Center
08:47PM 37.4456 -93.1328 28° Northeast 294 338 12,600 1,860 Climbing Kansas City Center
08:48PM 37.6687 -92.9393 35° Northeast  Level Estimated
08:48PM 37.5261 -93.0811 27° Northeast 311 358 14,300  Level Kansas City Center
08:49PM 37.7531 -92.8488 33° Northeast  Level Estimated
08:49PM 37.6097 -93.0283 27° Northeast 323 372 16,100  Level Kansas City Center
08:50PM 37.8374 -92.7581 46° Northeast  Level Estimated
08:50PM 37.6969 -92.9728 27° Northeast 341 392 17,300  Level Kansas City Center
08:51PM 37.7894 -92.9142 27° Northeast 360 414 18,300 1,020 Climbing Kansas City Center
08:52PM 37.8831 -92.8450 30° Northeast 382 440 19,500 1,080 Climbing Kansas City Center
08:53PM 37.9725 -92.7619 36° Northeast 391 450 20,600 1,020 Climbing Kansas City Center
08:54PM 38.0744 -92.6636 37° Northeast 406 467 21,600 840 Climbing Kansas City Center
08:55PM 38.1697 -92.5753 36° Northeast 419 482 22,400 780 Climbing Kansas City Center
08:56PM 38.2597 -92.4900 37° Northeast 429 494 23,200 780 Climbing Kansas City Center
08:57PM 38.3794 -92.3756 37° Northeast 440 506 24,100 840 Climbing Kansas City Center
08:58PM 38.4803 -92.2789 37° Northeast 446 513 25,000 720 Climbing Kansas City Center
08:59PM 38.5822 -92.1806 37° Northeast 453 521 25,700 660 Climbing Kansas City Center
09:00PM 38.6864 -92.0811 37° Northeast 460 529 26,400 540 Climbing Kansas City Center
09:01PM 38.7903 -91.9794 37° Northeast 466 536 26,900 240 Climbing Kansas City Center
09:02PM 38.8917 -91.8617 42° Northeast 481 554 27,000 180 Climbing Kansas City Center
09:03PM 38.9869 -91.7292 47° Northeast 497 572 27,300 480 Climbing Kansas City Center
09:04PM 39.0844 -91.5950 47° Northeast 498 573 28,000 300 Climbing Kansas City Center
09:05PM 39.1822 -91.4631 46° Northeast 503 579 28,000  Level Kansas City Center
09:06PM 39.2819 -91.3256 47° Northeast 514 592 28,000  Level Kansas City Center
09:07PM 39.3842 -91.1856 47° Northeast 527 606 28,000 -60 Level Kansas City Center
09:08PM 39.4861 -91.0444 47° Northeast 532 612 27,900 -60 Descending Kansas City Center
09:09PM 39.5881 -90.9025 47° Northeast 534 615 27,900  Level Kansas City Center
09:10PM 39.6889 -90.7600 47° Northeast 535 616 28,000  Climbing Kansas City Center
09:11PM 39.8008 -90.6031 47° Northeast 538 619 27,900  Descending Kansas City Center
09:12PM 39.9025 -90.4572 48° Northeast 541 623 28,000  Climbing Kansas City Center
09:13PM 40.0047 -90.3150 47° Northeast 541 623 27,900 -60 Descending Kansas City Center
09:14PM 40.1050 -90.1694 48° Northeast 540 621 27,900  Level Kansas City Center
09:15PM 40.2258 -89.9953 48° Northeast 541 623 28,000 -120 Climbing Kansas City Center
09:16PM 40.3269 -89.8514 47° Northeast 541 623 27,700 -540 Descending Kansas City Center
09:17PM 40.4139 -89.7411 44° Northeast 545 627 27,000 -840 Descending Chicago Center
09:18PM 40.5286 -89.6128 40° Northeast 546 628 26,100 -1,020 Descending Chicago Center
09:19PM 40.6611 -89.4619 41° Northeast 545 627 24,900 -1,080 Descending Chicago Center
09:20PM 40.7689 -89.3372 41° Northeast 528 608 24,000 -1,800 Descending Chicago Center
09:25PM 41.2240 -88.7890 41° Northeast 100 115 14,200 -1,680 Descending FlightAware
09:26PM 41.2430 -88.7680 40° Northeast 100 115 14,200  Level FlightAware
09:27PM 41.2530 -88.7550 44° Northeast 100 115 14,200 -1,740 Level FlightAware
09:28PM 41.4760 -88.4860 42° Northeast 412 474 10,900 -1,560 Descending FlightAware
09:29PM 41.5450 -88.4030 42° Northeast 393 452 10,900  Level FlightAware
09:30PM 41.6160 -88.3190 41° Northeast 410 472 10,900  Level FlightAware
09:30PM 41.6510 -88.2770 42° Northeast 404 465 10,900 -360 Level FlightAware
09:31PM 41.7290 -88.1840 42° Northeast 352 405 10,400 -780 Descending FlightAware
09:32PM 41.7570 -88.1510 41° Northeast 338 389 9,800 -1,440 Descending FlightAware
09:32PM 41.7900 -88.1120 41° Northeast 317 365 9,100 -780 Descending FlightAware
09:33PM 41.8160 -88.0820 41° Northeast 317 365 9,100  Level FlightAware
09:33PM 41.8390 -88.0550 41° Northeast 317 365 9,100  Level FlightAware
09:34PM 41.8610 -88.0290 41° Northeast 317 365 9,100  Level FlightAware
09:34PM 41.8840 -88.0030 40° Northeast 317 365 9,100  Level FlightAware
09:34PM 41.8950 -87.9890 43° Northeast 317 365 9,100 -2,640 Level FlightAware
09:35PM 41.8750 -87.8458 43° Northeast 293 337 6,900 -2,100 Descending Chicago Center
09:36PM 41.8847 -87.7644 81° East 251 289 5,600 -1,680 Descending Chicago Center
09:37PM 41.9167 -87.6833 62° Northeast 250 288 3,400 -1,260 Descending Chicago TRACON
09:38PM 41.9500 -87.7167 323° Northwest 161 185 3,200 -240 Descending Chicago TRACON
09:39PM 41.9667 -87.7667 294° West 133 153 3,000 -600 Descending Chicago TRACON
09:40PM 41.9667 -87.8167 270° West 127 146 2,000 -960 Descending Chicago TRACON
09:41PM 41.9667 -87.8667 270° West 143 165 1,100 -900 Descending Chicago TRACON
09:43PM 41.9667 -87.9000 251° West  Level FlightAware Approximate